Terminal Aerodrome Forecast
Issued by NWS El Paso, TX

Home | Current Version | Previous Version | Text Only | Print | Product List | Glossary On
Versions: 1 2 3 4 5 6 7 8 9 10 11 12 13 14 15
000
FTUS44 KEPZ 210500
TAFELP
TAF
KELP 210528Z 2106/2206 24008KT P6SM SCT120
     FM211900 24012G20KT P6SM SCT100
     FM220300 26010KT P6SM FEW100=

USA.gov is the U.S. government's official web portal to all federal, state and local government web resources and services.